Terminal Aerodrome Forecast
Issued by NWS

Home | Current Version | Previous Version | Text Only | Print | Product List | Glossary On
Versions: 1 2 3 4 5 6 7 8 9 10 11 12 13 14 15 16 17 18 19
000
FTUS43 KDTX 251120
TAFYIP
TAF
KYIP 251120Z 2512/2612 03010KT 2SM -SHRA BKN004 OVC007
     FM251400 05007KT 4SM -SHRA BR OVC006
     FM251700 03006KT 4SM -SHRA BR BKN007 OVC012
     FM252100 34007KT 6SM -SHRA BR SCT007 BKN012
     FM260200 31005KT P6SM BKN007 OVC012=

USA.gov is the U.S. government's official web portal to all federal, state and local government web resources and services.